Accueil
METAR-TAF:

METAR-TAF

Aéroports :

Aéroport du Touquet-Côte d'Opale

Le Touquet, France

latitude: 50-30-53N, longitude: 001-37-39E, altitude: 6 m

Observation

Le bulletin a été fait il y a 33 minutes, à 10:30 UTC
Vent 5 kt de sud-est
Température 9°C
Humidité 76%
Pression 1026 hPa
Visibilité 10 km ou plus
pas de nuages en-dessous de 1500 mètres et pas de cumulonimbus.

METAR: LFAT 161030Z AUTO 13005KT CAVOK 09/05 Q1026 NOSIG

Heure: 12:03 (11:03 UTC)

Prévision

Le bulletin a été fait il y a 3 heures et 3 minutes, à 08:00 UTC
Prévision valable du 16 à 09 UTC au 16 à 18 UTC
Vent 5 kt de sud/sud-est
Visibilité 10 km ou plus
pas de nuages en-dessous de 1500 mètres et pas de cumulonimbus.

TAF: LFAT 160800Z 1609/1618 16005KT CAVOK

Observations et prévisions météorologiques de plus de 4000 aéroports (messages METAR et TAF).

Les stations disponibles sont représentées par des disques jaunes et rouges sur la carte.

Passer la souris dessus pour voir le nom de la station.

Cliquer dessus pour voir les observations et prévisions météorologiques.

Pour changer de carte: cliquez sur les boutons verts avec une croix noire pour zoomer, sur le bouton vert avec un tiret pour effectuer un zoom arrière, ou sur les flèches vertes pour les cartes adjacentes.


METAR-TAF: